sensor_id;sensor_type;location;lat;lon;timestamp;temperature;humidity
41928;DHT22;27616;51.420;6.788;2023-06-24T00:00:56;16.90;99.90
41928;DHT22;27616;51.420;6.788;2023-06-24T00:03:22;16.90;99.90
41928;DHT22;27616;51.420;6.788;2023-06-24T00:05:47;16.80;99.90
41928;DHT22;27616;51.420;6.788;2023-06-24T00:08:15;16.80;99.90
41928;DHT22;27616;51.420;6.788;2023-06-24T00:10:45;16.80;99.90
41928;DHT22;27616;51.420;6.788;2023-06-24T00:13:12;16.70;99.90
41928;DHT22;27616;51.420;6.788;2023-06-24T00:15:37;16.70;99.90
41928;DHT22;27616;51.420;6.788;2023-06-24T00:18:11;16.60;99.90
41928;DHT22;27616;51.420;6.788;2023-06-24T00:20:37;16.60;99.90
41928;DHT22;27616;51.420;6.788;2023-06-24T00:23:03;16.60;99.90
41928;DHT22;27616;51.420;6.788;2023-06-24T00:25:31;16.60;99.90
41928;DHT22;27616;51.420;6.788;2023-06-24T00:27:57;16.70;99.90
41928;DHT22;27616;51.420;6.788;2023-06-24T00:30:23;16.80;99.90
41928;DHT22;27616;51.420;6.788;2023-06-24T00:32:49;16.70;99.90
41928;DHT22;27616;51.420;6.788;2023-06-24T00:35:14;16.70;99.90
41928;DHT22;27616;51.420;6.788;2023-06-24T00:37:41;16.70;99.90
41928;DHT22;27616;51.420;6.788;2023-06-24T00:40:08;16.60;99.90
41928;DHT22;27616;51.420;6.788;2023-06-24T00:42:41;16.50;99.90
41928;DHT22;27616;51.420;6.788;2023-06-24T00:45:08;16.50;99.90
41928;DHT22;27616;51.420;6.788;2023-06-24T00:47:35;16.50;99.90
41928;DHT22;27616;51.420;6.788;2023-06-24T00:50:01;16.40;99.90
41928;DHT22;27616;51.420;6.788;2023-06-24T00:52:27;16.40;99.90
41928;DHT22;27616;51.420;6.788;2023-06-24T00:54:53;16.40;99.90
41928;DHT22;27616;51.420;6.788;2023-06-24T00:57:21;16.40;99.90
41928;DHT22;27616;51.420;6.788;2023-06-24T00:59:51;16.30;99.90
41928;DHT22;27616;51.420;6.788;2023-06-24T01:02:20;16.40;99.90
41928;DHT22;27616;51.420;6.788;2023-06-24T01:04:49;16.40;99.90
41928;DHT22;27616;51.420;6.788;2023-06-24T01:07:16;16.50;99.90
41928;DHT22;27616;51.420;6.788;2023-06-24T01:09:43;16.50;99.90
41928;DHT22;27616;51.420;6.788;2023-06-24T01:12:09;16.60;99.90
41928;DHT22;27616;51.420;6.788;2023-06-24T01:14:35;16.60;99.90
41928;DHT22;27616;51.420;6.788;2023-06-24T01:17:21;16.50;99.90
41928;DHT22;27616;51.420;6.788;2023-06-24T01:25:04;16.60;99.90
41928;DHT22;27616;51.420;6.788;2023-06-24T01:27:45;16.50;99.90
41928;DHT22;27616;51.420;6.788;2023-06-24T01:33:10;16.40;99.90
41928;DHT22;27616;51.420;6.788;2023-06-24T01:35:41;16.30;99.90
41928;DHT22;27616;51.420;6.788;2023-06-24T01:38:10;16.30;99.90
41928;DHT22;27616;51.420;6.788;2023-06-24T01:40:46;16.30;99.90
41928;DHT22;27616;51.420;6.788;2023-06-24T01:43:13;16.30;99.90
41928;DHT22;27616;51.420;6.788;2023-06-24T01:45:42;16.20;99.90
41928;DHT22;27616;51.420;6.788;2023-06-24T01:48:21;16.20;99.90
41928;DHT22;27616;51.420;6.788;2023-06-24T01:50:58;16.10;99.90
41928;DHT22;27616;51.420;6.788;2023-06-24T01:53:26;16.10;99.90
41928;DHT22;27616;51.420;6.788;2023-06-24T01:55:54;16.00;99.90
41928;DHT22;27616;51.420;6.788;2023-06-24T01:58:22;16.00;99.90
41928;DHT22;27616;51.420;6.788;2023-06-24T02:00:48;15.90;99.90
41928;DHT22;27616;51.420;6.788;2023-06-24T02:03:15;15.90;99.90
41928;DHT22;27616;51.420;6.788;2023-06-24T02:05:41;15.90;99.90
41928;DHT22;27616;51.420;6.788;2023-06-24T02:08:08;15.80;99.90
41928;DHT22;27616;51.420;6.788;2023-06-24T02:10:37;15.80;99.90
41928;DHT22;27616;51.420;6.788;2023-06-24T02:13:04;15.80;99.90
41928;DHT22;27616;51.420;6.788;2023-06-24T02:15:30;15.70;99.90
41928;DHT22;27616;51.420;6.788;2023-06-24T02:17:56;15.70;99.90
41928;DHT22;27616;51.420;6.788;2023-06-24T02:20:23;15.70;99.90
41928;DHT22;27616;51.420;6.788;2023-06-24T02:22:53;15.70;99.90
41928;DHT22;27616;51.420;6.788;2023-06-24T02:25:21;15.70;99.90
41928;DHT22;27616;51.420;6.788;2023-06-24T02:27:47;15.70;99.90
41928;DHT22;27616;51.420;6.788;2023-06-24T02:30:14;15.80;99.90
41928;DHT22;27616;51.420;6.788;2023-06-24T02:32:40;15.90;99.90
41928;DHT22;27616;51.420;6.788;2023-06-24T02:35:06;15.90;99.90
41928;DHT22;27616;51.420;6.788;2023-06-24T02:37:33;15.90;99.90
41928;DHT22;27616;51.420;6.788;2023-06-24T02:39:59;16.00;99.90
41928;DHT22;27616;51.420;6.788;2023-06-24T02:42:26;16.00;99.90
41928;DHT22;27616;51.420;6.788;2023-06-24T02:44:51;16.00;99.90
41928;DHT22;27616;51.420;6.788;2023-06-24T02:47:18;16.00;99.90
41928;DHT22;27616;51.420;6.788;2023-06-24T02:49:45;16.00;99.90
41928;DHT22;27616;51.420;6.788;2023-06-24T02:52:12;16.00;99.90
41928;DHT22;27616;51.420;6.788;2023-06-24T02:54:38;16.00;99.90
41928;DHT22;27616;51.420;6.788;2023-06-24T02:57:25;16.10;99.90
41928;DHT22;27616;51.420;6.788;2023-06-24T03:00:15;16.00;99.90
41928;DHT22;27616;51.420;6.788;2023-06-24T03:03:01;16.00;99.90
41928;DHT22;27616;51.420;6.788;2023-06-24T03:05:28;16.00;99.90
41928;DHT22;27616;51.420;6.788;2023-06-24T03:07:56;16.00;99.90
41928;DHT22;27616;51.420;6.788;2023-06-24T03:10:23;16.00;99.90
41928;DHT22;27616;51.420;6.788;2023-06-24T03:12:50;16.00;99.90
41928;DHT22;27616;51.420;6.788;2023-06-24T03:15:16;16.00;99.90
41928;DHT22;27616;51.420;6.788;2023-06-24T03:17:42;16.10;99.90
41928;DHT22;27616;51.420;6.788;2023-06-24T03:20:08;16.20;99.90
41928;DHT22;27616;51.420;6.788;2023-06-24T03:22:34;16.20;99.90
41928;DHT22;27616;51.420;6.788;2023-06-24T03:25:01;16.30;99.90
41928;DHT22;27616;51.420;6.788;2023-06-24T03:27:27;16.50;99.90
41928;DHT22;27616;51.420;6.788;2023-06-24T03:29:53;16.60;99.90
41928;DHT22;27616;51.420;6.788;2023-06-24T03:32:19;16.60;99.90
41928;DHT22;27616;51.420;6.788;2023-06-24T03:34:46;16.70;99.90
41928;DHT22;27616;51.420;6.788;2023-06-24T03:37:12;16.70;99.90
41928;DHT22;27616;51.420;6.788;2023-06-24T03:39:40;16.70;99.90
41928;DHT22;27616;51.420;6.788;2023-06-24T03:42:06;16.70;99.90
41928;DHT22;27616;51.420;6.788;2023-06-24T03:44:32;16.80;99.90
41928;DHT22;27616;51.420;6.788;2023-06-24T03:46:57;16.80;99.90
41928;DHT22;27616;51.420;6.788;2023-06-24T03:49:24;16.80;99.90
41928;DHT22;27616;51.420;6.788;2023-06-24T03:51:49;16.80;99.90
41928;DHT22;27616;51.420;6.788;2023-06-24T03:54:15;16.90;99.90
41928;DHT22;27616;51.420;6.788;2023-06-24T03:56:41;16.90;99.90
41928;DHT22;27616;51.420;6.788;2023-06-24T03:59:06;16.90;99.90
41928;DHT22;27616;51.420;6.788;2023-06-24T04:01:33;16.90;99.90
41928;DHT22;27616;51.420;6.788;2023-06-24T04:03:59;16.90;99.90
41928;DHT22;27616;51.420;6.788;2023-06-24T04:06:24;16.90;99.90
41928;DHT22;27616;51.420;6.788;2023-06-24T04:08:52;16.90;99.90
41928;DHT22;27616;51.420;6.788;2023-06-24T04:11:18;16.90;99.90
41928;DHT22;27616;51.420;6.788;2023-06-24T04:13:45;16.90;99.90
41928;DHT22;27616;51.420;6.788;2023-06-24T04:16:11;16.90;99.90
41928;DHT22;27616;51.420;6.788;2023-06-24T04:18:37;16.90;99.90
41928;DHT22;27616;51.420;6.788;2023-06-24T04:21:06;16.90;99.90
41928;DHT22;27616;51.420;6.788;2023-06-24T04:23:34;16.90;99.90
41928;DHT22;27616;51.420;6.788;2023-06-24T04:26:00;16.90;99.90
41928;DHT22;27616;51.420;6.788;2023-06-24T04:28:26;17.00;99.90
41928;DHT22;27616;51.420;6.788;2023-06-24T04:30:52;17.00;99.90
41928;DHT22;27616;51.420;6.788;2023-06-24T04:33:18;17.10;99.90
41928;DHT22;27616;51.420;6.788;2023-06-24T04:35:44;17.10;99.90
41928;DHT22;27616;51.420;6.788;2023-06-24T04:38:10;17.10;99.90
41928;DHT22;27616;51.420;6.788;2023-06-24T04:40:36;17.10;99.90
41928;DHT22;27616;51.420;6.788;2023-06-24T04:43:02;17.00;99.90
41928;DHT22;27616;51.420;6.788;2023-06-24T04:45:28;17.10;99.90
41928;DHT22;27616;51.420;6.788;2023-06-24T04:47:53;17.10;99.90
41928;DHT22;27616;51.420;6.788;2023-06-24T04:50:19;17.10;99.90
41928;DHT22;27616;51.420;6.788;2023-06-24T04:52:45;17.10;99.90
41928;DHT22;27616;51.420;6.788;2023-06-24T04:55:10;17.20;99.90
41928;DHT22;27616;51.420;6.788;2023-06-24T04:57:36;17.20;99.90
41928;DHT22;27616;51.420;6.788;2023-06-24T05:00:02;17.20;99.90
41928;DHT22;27616;51.420;6.788;2023-06-24T05:02:28;17.30;99.90
41928;DHT22;27616;51.420;6.788;2023-06-24T05:04:54;17.40;99.90
41928;DHT22;27616;51.420;6.788;2023-06-24T05:07:19;17.40;99.90
41928;DHT22;27616;51.420;6.788;2023-06-24T05:09:47;17.40;99.90
41928;DHT22;27616;51.420;6.788;2023-06-24T05:12:13;17.40;99.90
41928;DHT22;27616;51.420;6.788;2023-06-24T05:14:38;17.50;99.90
41928;DHT22;27616;51.420;6.788;2023-06-24T05:17:04;17.50;99.90
41928;DHT22;27616;51.420;6.788;2023-06-24T05:19:30;17.50;99.90
41928;DHT22;27616;51.420;6.788;2023-06-24T05:21:56;17.60;99.90
41928;DHT22;27616;51.420;6.788;2023-06-24T05:24:21;17.60;99.90
41928;DHT22;27616;51.420;6.788;2023-06-24T05:26:49;17.70;99.90
41928;DHT22;27616;51.420;6.788;2023-06-24T05:29:15;17.80;99.90
41928;DHT22;27616;51.420;6.788;2023-06-24T05:31:41;17.90;99.90
41928;DHT22;27616;51.420;6.788;2023-06-24T05:34:07;18.00;99.90
41928;DHT22;27616;51.420;6.788;2023-06-24T05:36:33;18.20;99.90
41928;DHT22;27616;51.420;6.788;2023-06-24T05:38:59;18.30;99.90
41928;DHT22;27616;51.420;6.788;2023-06-24T05:41:24;18.40;99.90
41928;DHT22;27616;51.420;6.788;2023-06-24T05:44:04;18.60;99.90
41928;DHT22;27616;51.420;6.788;2023-06-24T05:46:30;18.70;99.90
41928;DHT22;27616;51.420;6.788;2023-06-24T05:48:56;18.90;99.90
41928;DHT22;27616;51.420;6.788;2023-06-24T05:51:21;19.00;99.90
41928;DHT22;27616;51.420;6.788;2023-06-24T05:53:47;19.20;99.90
41928;DHT22;27616;51.420;6.788;2023-06-24T05:56:12;19.40;99.90
41928;DHT22;27616;51.420;6.788;2023-06-24T05:58:38;19.60;99.90
41928;DHT22;27616;51.420;6.788;2023-06-24T06:01:04;19.80;99.90
41928;DHT22;27616;51.420;6.788;2023-06-24T06:03:30;19.80;99.90
41928;DHT22;27616;51.420;6.788;2023-06-24T06:05:56;19.90;99.90
41928;DHT22;27616;51.420;6.788;2023-06-24T06:08:22;20.00;99.90
41928;DHT22;27616;51.420;6.788;2023-06-24T06:10:47;20.00;99.90
41928;DHT22;27616;51.420;6.788;2023-06-24T06:13:13;20.00;99.90
41928;DHT22;27616;51.420;6.788;2023-06-24T06:15:38;20.20;99.90
41928;DHT22;27616;51.420;6.788;2023-06-24T06:18:04;20.20;99.90
41928;DHT22;27616;51.420;6.788;2023-06-24T06:20:30;20.40;99.90
41928;DHT22;27616;51.420;6.788;2023-06-24T06:22:55;20.50;99.90
41928;DHT22;27616;51.420;6.788;2023-06-24T06:25:21;20.50;99.90
41928;DHT22;27616;51.420;6.788;2023-06-24T06:27:47;20.50;99.90
41928;DHT22;27616;51.420;6.788;2023-06-24T06:30:13;20.50;99.90
41928;DHT22;27616;51.420;6.788;2023-06-24T06:32:39;20.50;99.90
41928;DHT22;27616;51.420;6.788;2023-06-24T06:35:05;20.50;99.90
41928;DHT22;27616;51.420;6.788;2023-06-24T06:37:30;20.50;99.90
41928;DHT22;27616;51.420;6.788;2023-06-24T06:39:56;20.60;99.90
41928;DHT22;27616;51.420;6.788;2023-06-24T06:42:22;20.60;99.90
41928;DHT22;27616;51.420;6.788;2023-06-24T06:44:47;20.70;99.90
41928;DHT22;27616;51.420;6.788;2023-06-24T06:47:13;20.70;99.90
41928;DHT22;27616;51.420;6.788;2023-06-24T06:49:38;20.60;99.90
41928;DHT22;27616;51.420;6.788;2023-06-24T06:52:05;20.70;99.90
41928;DHT22;27616;51.420;6.788;2023-06-24T06:54:31;20.70;99.90
41928;DHT22;27616;51.420;6.788;2023-06-24T06:57:02;20.70;99.90
41928;DHT22;27616;51.420;6.788;2023-06-24T06:59:32;20.80;99.90
41928;DHT22;27616;51.420;6.788;2023-06-24T07:01:58;20.90;99.90
41928;DHT22;27616;51.420;6.788;2023-06-24T07:04:23;21.00;99.90
41928;DHT22;27616;51.420;6.788;2023-06-24T07:06:49;21.10;99.90
41928;DHT22;27616;51.420;6.788;2023-06-24T07:09:15;21.20;99.90
41928;DHT22;27616;51.420;6.788;2023-06-24T07:11:43;21.20;99.90
41928;DHT22;27616;51.420;6.788;2023-06-24T07:14:09;21.40;99.90
41928;DHT22;27616;51.420;6.788;2023-06-24T07:16:35;21.50;99.90
41928;DHT22;27616;51.420;6.788;2023-06-24T07:19:01;21.70;99.90
41928;DHT22;27616;51.420;6.788;2023-06-24T07:21:26;22.00;99.90
41928;DHT22;27616;51.420;6.788;2023-06-24T07:23:52;22.10;99.90
41928;DHT22;27616;51.420;6.788;2023-06-24T07:26:17;22.20;99.90
41928;DHT22;27616;51.420;6.788;2023-06-24T07:28:43;22.30;99.90
41928;DHT22;27616;51.420;6.788;2023-06-24T07:31:09;22.40;99.90
41928;DHT22;27616;51.420;6.788;2023-06-24T07:33:34;22.50;99.90
41928;DHT22;27616;51.420;6.788;2023-06-24T07:36:00;22.60;99.90
41928;DHT22;27616;51.420;6.788;2023-06-24T07:38:28;22.60;99.90
41928;DHT22;27616;51.420;6.788;2023-06-24T07:40:54;22.40;99.90
41928;DHT22;27616;51.420;6.788;2023-06-24T07:43:19;22.30;99.90
41928;DHT22;27616;51.420;6.788;2023-06-24T07:45:45;22.30;99.90
41928;DHT22;27616;51.420;6.788;2023-06-24T07:48:10;22.60;99.90
41928;DHT22;27616;51.420;6.788;2023-06-24T07:50:37;22.70;99.90
41928;DHT22;27616;51.420;6.788;2023-06-24T07:53:03;22.70;99.90
41928;DHT22;27616;51.420;6.788;2023-06-24T07:55:28;22.70;99.90
41928;DHT22;27616;51.420;6.788;2023-06-24T07:57:54;22.70;99.90
41928;DHT22;27616;51.420;6.788;2023-06-24T08:00:20;22.70;99.90
41928;DHT22;27616;51.420;6.788;2023-06-24T08:02:45;22.70;99.90
41928;DHT22;27616;51.420;6.788;2023-06-24T08:05:11;22.80;99.90
41928;DHT22;27616;51.420;6.788;2023-06-24T08:07:37;22.80;99.90
41928;DHT22;27616;51.420;6.788;2023-06-24T08:10:04;22.90;99.90
41928;DHT22;27616;51.420;6.788;2023-06-24T08:12:30;23.00;99.90
41928;DHT22;27616;51.420;6.788;2023-06-24T08:14:56;23.10;99.90
41928;DHT22;27616;51.420;6.788;2023-06-24T08:17:22;23.20;99.90
41928;DHT22;27616;51.420;6.788;2023-06-24T08:19:48;23.30;99.90
41928;DHT22;27616;51.420;6.788;2023-06-24T08:22:14;23.40;99.90
41928;DHT22;27616;51.420;6.788;2023-06-24T08:24:40;23.50;99.90
41928;DHT22;27616;51.420;6.788;2023-06-24T08:27:05;23.60;99.90
41928;DHT22;27616;51.420;6.788;2023-06-24T08:29:31;23.70;99.90
41928;DHT22;27616;51.420;6.788;2023-06-24T08:31:57;23.70;99.90
41928;DHT22;27616;51.420;6.788;2023-06-24T08:34:22;23.70;99.90
41928;DHT22;27616;51.420;6.788;2023-06-24T08:36:48;23.70;99.90
41928;DHT22;27616;51.420;6.788;2023-06-24T08:39:13;23.80;99.90
41928;DHT22;27616;51.420;6.788;2023-06-24T08:41:39;23.80;99.90
41928;DHT22;27616;51.420;6.788;2023-06-24T08:44:05;24.00;99.50
41928;DHT22;27616;51.420;6.788;2023-06-24T08:46:31;24.10;99.40
41928;DHT22;27616;51.420;6.788;2023-06-24T08:52:11;24.10;99.90
41928;DHT22;27616;51.420;6.788;2023-06-24T08:54:40;24.30;98.30
41928;DHT22;27616;51.420;6.788;2023-06-24T08:57:06;24.30;99.70
41928;DHT22;27616;51.420;6.788;2023-06-24T08:59:36;24.40;97.90
41928;DHT22;27616;51.420;6.788;2023-06-24T09:02:02;24.30;98.00
41928;DHT22;27616;51.420;6.788;2023-06-24T09:04:28;24.50;96.70
41928;DHT22;27616;51.420;6.788;2023-06-24T09:06:53;24.50;96.50
41928;DHT22;27616;51.420;6.788;2023-06-24T09:09:20;24.60;96.20
41928;DHT22;27616;51.420;6.788;2023-06-24T09:12:13;24.70;95.40
41928;DHT22;27616;51.420;6.788;2023-06-24T09:14:39;24.80;95.00
41928;DHT22;27616;51.420;6.788;2023-06-24T09:17:06;24.90;94.40
41928;DHT22;27616;51.420;6.788;2023-06-24T09:19:31;24.80;94.30
41928;DHT22;27616;51.420;6.788;2023-06-24T09:22:08;24.90;94.70
41928;DHT22;27616;51.420;6.788;2023-06-24T09:24:35;25.00;94.20
41928;DHT22;27616;51.420;6.788;2023-06-24T09:27:01;25.10;93.40
41928;DHT22;27616;51.420;6.788;2023-06-24T09:29:28;25.20;93.20
41928;DHT22;27616;51.420;6.788;2023-06-24T09:31:54;25.30;92.80
41928;DHT22;27616;51.420;6.788;2023-06-24T09:34:22;25.30;93.30
41928;DHT22;27616;51.420;6.788;2023-06-24T09:36:58;25.30;91.40
41928;DHT22;27616;51.420;6.788;2023-06-24T09:39:25;25.30;91.00
41928;DHT22;27616;51.420;6.788;2023-06-24T09:44:21;25.40;91.70
41928;DHT22;27616;51.420;6.788;2023-06-24T09:46:47;25.50;91.90
41928;DHT22;27616;51.420;6.788;2023-06-24T09:49:13;25.60;88.70
41928;DHT22;27616;51.420;6.788;2023-06-24T09:51:42;25.60;90.20
41928;DHT22;27616;51.420;6.788;2023-06-24T09:54:09;25.60;87.80
41928;DHT22;27616;51.420;6.788;2023-06-24T09:56:35;25.70;85.40
41928;DHT22;27616;51.420;6.788;2023-06-24T09:59:06;25.80;83.00
41928;DHT22;27616;51.420;6.788;2023-06-24T10:01:43;25.70;82.40
41928;DHT22;27616;51.420;6.788;2023-06-24T10:04:13;25.70;84.00
41928;DHT22;27616;51.420;6.788;2023-06-24T10:06:40;25.90;85.20
41928;DHT22;27616;51.420;6.788;2023-06-24T10:09:06;26.00;85.70
41928;DHT22;27616;51.420;6.788;2023-06-24T10:11:32;26.00;84.80
41928;DHT22;27616;51.420;6.788;2023-06-24T10:13:58;26.10;78.40
41928;DHT22;27616;51.420;6.788;2023-06-24T10:16:23;26.10;76.30
41928;DHT22;27616;51.420;6.788;2023-06-24T10:18:49;26.10;78.00
41928;DHT22;27616;51.420;6.788;2023-06-24T10:21:15;26.00;80.90
41928;DHT22;27616;51.420;6.788;2023-06-24T10:26:11;26.10;81.80
41928;DHT22;27616;51.420;6.788;2023-06-24T10:29:13;26.10;81.90
41928;DHT22;27616;51.420;6.788;2023-06-24T10:31:53;26.10;79.30
41928;DHT22;27616;51.420;6.788;2023-06-24T10:37:02;26.30;73.60
41928;DHT22;27616;51.420;6.788;2023-06-24T10:42:32;26.50;77.90
41928;DHT22;27616;51.420;6.788;2023-06-24T10:47:39;26.80;78.00
41928;DHT22;27616;51.420;6.788;2023-06-24T10:50:06;26.70;76.90
41928;DHT22;27616;51.420;6.788;2023-06-24T10:52:35;26.80;77.30
41928;DHT22;27616;51.420;6.788;2023-06-24T10:55:03;26.80;72.50
41928;DHT22;27616;51.420;6.788;2023-06-24T10:57:29;26.80;72.70
41928;DHT22;27616;51.420;6.788;2023-06-24T10:59:56;26.80;72.10
41928;DHT22;27616;51.420;6.788;2023-06-24T11:02:27;27.00;70.80
41928;DHT22;27616;51.420;6.788;2023-06-24T11:04:54;27.00;71.70
41928;DHT22;27616;51.420;6.788;2023-06-24T11:07:22;27.10;74.10
41928;DHT22;27616;51.420;6.788;2023-06-24T11:10:00;27.00;73.00
41928;DHT22;27616;51.420;6.788;2023-06-24T11:12:29;26.70;74.50
41928;DHT22;27616;51.420;6.788;2023-06-24T11:15:03;26.80;74.30
41928;DHT22;27616;51.420;6.788;2023-06-24T11:17:29;26.80;71.60
41928;DHT22;27616;51.420;6.788;2023-06-24T11:19:57;26.80;72.50
41928;DHT22;27616;51.420;6.788;2023-06-24T11:22:24;26.90;72.30
41928;DHT22;27616;51.420;6.788;2023-06-24T11:24:50;26.90;71.80
41928;DHT22;27616;51.420;6.788;2023-06-24T11:27:15;27.00;71.00
41928;DHT22;27616;51.420;6.788;2023-06-24T11:29:41;27.00;72.40
41928;DHT22;27616;51.420;6.788;2023-06-24T11:32:08;27.10;70.40
41928;DHT22;27616;51.420;6.788;2023-06-24T11:34:37;27.20;69.50
41928;DHT22;27616;51.420;6.788;2023-06-24T11:37:14;27.30;69.80
41928;DHT22;27616;51.420;6.788;2023-06-24T11:39:40;27.20;69.70
41928;DHT22;27616;51.420;6.788;2023-06-24T11:42:10;27.20;68.60
41928;DHT22;27616;51.420;6.788;2023-06-24T11:44:40;27.10;68.90
41928;DHT22;27616;51.420;6.788;2023-06-24T11:47:08;27.00;72.00
41928;DHT22;27616;51.420;6.788;2023-06-24T11:49:56;26.90;70.80
41928;DHT22;27616;51.420;6.788;2023-06-24T11:52:37;26.90;68.70
41928;DHT22;27616;51.420;6.788;2023-06-24T11:55:03;27.00;70.00
41928;DHT22;27616;51.420;6.788;2023-06-24T12:00:14;27.20;68.70
41928;DHT22;27616;51.420;6.788;2023-06-24T12:02:40;27.20;68.50
41928;DHT22;27616;51.420;6.788;2023-06-24T12:05:06;27.20;66.60
41928;DHT22;27616;51.420;6.788;2023-06-24T12:07:31;27.10;67.10
41928;DHT22;27616;51.420;6.788;2023-06-24T12:09:57;27.10;69.00
41928;DHT22;27616;51.420;6.788;2023-06-24T12:12:22;27.20;71.10
41928;DHT22;27616;51.420;6.788;2023-06-24T12:14:48;27.30;67.20
41928;DHT22;27616;51.420;6.788;2023-06-24T12:17:13;27.20;69.60
41928;DHT22;27616;51.420;6.788;2023-06-24T12:19:39;27.40;69.70
41928;DHT22;27616;51.420;6.788;2023-06-24T12:22:05;27.50;68.90
41928;DHT22;27616;51.420;6.788;2023-06-24T12:24:30;27.50;67.00
41928;DHT22;27616;51.420;6.788;2023-06-24T12:26:56;27.60;66.90
41928;DHT22;27616;51.420;6.788;2023-06-24T12:29:22;27.60;65.70
41928;DHT22;27616;51.420;6.788;2023-06-24T12:31:47;27.70;67.90
41928;DHT22;27616;51.420;6.788;2023-06-24T12:34:13;27.80;67.80
41928;DHT22;27616;51.420;6.788;2023-06-24T12:36:38;27.80;66.60
41928;DHT22;27616;51.420;6.788;2023-06-24T12:39:04;27.70;66.90
41928;DHT22;27616;51.420;6.788;2023-06-24T12:41:29;27.70;65.40
41928;DHT22;27616;51.420;6.788;2023-06-24T12:43:55;27.80;65.80
41928;DHT22;27616;51.420;6.788;2023-06-24T12:46:21;27.70;64.40
41928;DHT22;27616;51.420;6.788;2023-06-24T12:48:46;27.60;64.10
41928;DHT22;27616;51.420;6.788;2023-06-24T12:51:12;27.40;64.80
41928;DHT22;27616;51.420;6.788;2023-06-24T12:53:37;27.60;65.80
41928;DHT22;27616;51.420;6.788;2023-06-24T12:56:03;27.70;65.50
41928;DHT22;27616;51.420;6.788;2023-06-24T12:58:29;27.90;62.50
41928;DHT22;27616;51.420;6.788;2023-06-24T13:00:54;28.00;59.50
41928;DHT22;27616;51.420;6.788;2023-06-24T13:03:20;27.90;61.00
41928;DHT22;27616;51.420;6.788;2023-06-24T13:05:46;27.90;59.00
41928;DHT22;27616;51.420;6.788;2023-06-24T13:08:11;28.10;59.70
41928;DHT22;27616;51.420;6.788;2023-06-24T13:10:37;28.10;59.30
41928;DHT22;27616;51.420;6.788;2023-06-24T13:13:04;28.10;60.50
41928;DHT22;27616;51.420;6.788;2023-06-24T13:15:29;27.90;56.90
41928;DHT22;27616;51.420;6.788;2023-06-24T13:17:55;27.80;58.10
41928;DHT22;27616;51.420;6.788;2023-06-24T13:20:20;27.80;58.90
41928;DHT22;27616;51.420;6.788;2023-06-24T13:22:46;28.00;58.00
41928;DHT22;27616;51.420;6.788;2023-06-24T13:25:12;28.10;58.20
41928;DHT22;27616;51.420;6.788;2023-06-24T13:27:38;28.00;56.20
41928;DHT22;27616;51.420;6.788;2023-06-24T13:30:03;27.90;57.00
41928;DHT22;27616;51.420;6.788;2023-06-24T13:32:30;27.80;57.30
41928;DHT22;27616;51.420;6.788;2023-06-24T13:34:55;27.80;55.90
41928;DHT22;27616;51.420;6.788;2023-06-24T13:37:21;27.90;55.70
41928;DHT22;27616;51.420;6.788;2023-06-24T13:39:47;28.10;55.80
41928;DHT22;27616;51.420;6.788;2023-06-24T13:42:13;28.00;54.90
41928;DHT22;27616;51.420;6.788;2023-06-24T13:44:39;27.90;55.00
41928;DHT22;27616;51.420;6.788;2023-06-24T13:47:04;27.90;55.90
41928;DHT22;27616;51.420;6.788;2023-06-24T13:49:30;27.90;56.10
41928;DHT22;27616;51.420;6.788;2023-06-24T13:51:56;28.00;56.30
41928;DHT22;27616;51.420;6.788;2023-06-24T13:54:21;28.10;57.40
41928;DHT22;27616;51.420;6.788;2023-06-24T13:56:47;28.30;54.90
41928;DHT22;27616;51.420;6.788;2023-06-24T13:59:13;28.20;55.30
41928;DHT22;27616;51.420;6.788;2023-06-24T14:01:38;28.20;56.20
41928;DHT22;27616;51.420;6.788;2023-06-24T14:04:04;28.20;57.20
41928;DHT22;27616;51.420;6.788;2023-06-24T14:06:30;28.10;58.00
41928;DHT22;27616;51.420;6.788;2023-06-24T14:08:56;28.00;57.50
41928;DHT22;27616;51.420;6.788;2023-06-24T14:11:22;28.00;56.90
41928;DHT22;27616;51.420;6.788;2023-06-24T14:13:47;27.90;57.80
41928;DHT22;27616;51.420;6.788;2023-06-24T14:16:13;27.90;58.50
41928;DHT22;27616;51.420;6.788;2023-06-24T14:18:39;27.90;57.80
41928;DHT22;27616;51.420;6.788;2023-06-24T14:21:05;28.10;57.50
41928;DHT22;27616;51.420;6.788;2023-06-24T14:23:32;28.00;57.20
41928;DHT22;27616;51.420;6.788;2023-06-24T14:25:58;27.80;57.80
41928;DHT22;27616;51.420;6.788;2023-06-24T14:28:25;27.90;58.50
41928;DHT22;27616;51.420;6.788;2023-06-24T14:30:51;28.00;58.00
41928;DHT22;27616;51.420;6.788;2023-06-24T14:33:16;28.10;57.80
41928;DHT22;27616;51.420;6.788;2023-06-24T14:35:42;28.10;57.10
41928;DHT22;27616;51.420;6.788;2023-06-24T14:38:08;28.20;58.20
41928;DHT22;27616;51.420;6.788;2023-06-24T14:40:33;28.10;57.50
41928;DHT22;27616;51.420;6.788;2023-06-24T14:42:59;27.90;56.80
41928;DHT22;27616;51.420;6.788;2023-06-24T14:45:25;28.00;57.10
41928;DHT22;27616;51.420;6.788;2023-06-24T14:47:51;28.00;57.30
41928;DHT22;27616;51.420;6.788;2023-06-24T14:50:17;28.10;56.20
41928;DHT22;27616;51.420;6.788;2023-06-24T14:52:43;28.20;55.50
41928;DHT22;27616;51.420;6.788;2023-06-24T14:55:09;28.20;57.50
41928;DHT22;27616;51.420;6.788;2023-06-24T14:57:35;28.30;55.00
41928;DHT22;27616;51.420;6.788;2023-06-24T15:00:02;28.40;55.10
41928;DHT22;27616;51.420;6.788;2023-06-24T15:02:28;28.30;54.70
41928;DHT22;27616;51.420;6.788;2023-06-24T15:04:54;28.30;56.60
41928;DHT22;27616;51.420;6.788;2023-06-24T15:07:19;28.20;55.50
41928;DHT22;27616;51.420;6.788;2023-06-24T15:09:45;28.40;55.10
41928;DHT22;27616;51.420;6.788;2023-06-24T15:12:10;28.60;54.20
41928;DHT22;27616;51.420;6.788;2023-06-24T15:14:36;28.70;52.70
41928;DHT22;27616;51.420;6.788;2023-06-24T15:17:03;28.70;53.40
41928;DHT22;27616;51.420;6.788;2023-06-24T15:19:29;28.50;52.60
41928;DHT22;27616;51.420;6.788;2023-06-24T15:21:54;28.50;53.90
41928;DHT22;27616;51.420;6.788;2023-06-24T15:24:20;28.40;53.50
41928;DHT22;27616;51.420;6.788;2023-06-24T15:26:46;28.40;53.50
41928;DHT22;27616;51.420;6.788;2023-06-24T15:29:11;28.40;51.50
41928;DHT22;27616;51.420;6.788;2023-06-24T15:31:37;28.10;52.60
41928;DHT22;27616;51.420;6.788;2023-06-24T15:34:03;28.00;54.40
41928;DHT22;27616;51.420;6.788;2023-06-24T15:36:28;28.00;54.40
41928;DHT22;27616;51.420;6.788;2023-06-24T15:38:55;28.10;54.60
41928;DHT22;27616;51.420;6.788;2023-06-24T15:41:21;28.30;55.80
41928;DHT22;27616;51.420;6.788;2023-06-24T15:43:47;28.20;56.60
41928;DHT22;27616;51.420;6.788;2023-06-24T15:46:13;28.20;56.20
41928;DHT22;27616;51.420;6.788;2023-06-24T15:48:39;28.10;55.70
41928;DHT22;27616;51.420;6.788;2023-06-24T15:51:05;28.20;55.80
41928;DHT22;27616;51.420;6.788;2023-06-24T15:53:31;28.10;56.70
41928;DHT22;27616;51.420;6.788;2023-06-24T15:55:56;28.20;57.50